createdAt,value
2018-09-17T00:01:01.287Z,7.90
2018-09-17T00:03:31.998Z,5.70
2018-09-17T00:06:02.617Z,5.27
2018-09-17T00:08:33.269Z,5.90
2018-09-17T00:11:03.971Z,4.93
2018-09-17T00:13:34.637Z,5.20
2018-09-17T00:16:05.271Z,6.57
2018-09-17T00:18:35.928Z,3.77
2018-09-17T00:21:06.627Z,3.23
2018-09-17T00:23:37.299Z,5.27
2018-09-17T00:26:08.024Z,4.70
2018-09-17T00:28:38.692Z,5.73
2018-09-17T00:31:09.397Z,4.53
2018-09-17T00:33:40.188Z,6.40
2018-09-17T00:36:10.866Z,4.03
2018-09-17T00:38:41.610Z,4.53
2018-09-17T00:41:12.369Z,4.73
2018-09-17T00:43:43.044Z,3.70
2018-09-17T00:46:13.742Z,6.00
2018-09-17T00:48:44.458Z,4.17
2018-09-17T00:51:15.933Z,4.03
2018-09-17T00:53:46.649Z,5.97
2018-09-17T00:56:17.336Z,4.33
2018-09-17T00:58:48.183Z,4.87
2018-09-17T01:01:19.004Z,3.57
2018-09-17T01:03:49.712Z,4.20
2018-09-17T01:06:20.543Z,3.20
2018-09-17T01:08:51.226Z,4.37
2018-09-17T01:11:21.977Z,3.87
2018-09-17T01:13:52.723Z,3.90
2018-09-17T01:16:23.511Z,3.83
2018-09-17T01:18:54.219Z,3.20
2018-09-17T01:21:25.011Z,2.93
2018-09-17T01:23:55.722Z,2.50
2018-09-17T01:26:26.448Z,2.40
2018-09-17T01:28:57.076Z,4.37
2018-09-17T01:31:27.828Z,4.80
2018-09-17T01:33:58.563Z,3.50
2018-09-17T01:36:29.263Z,3.20
2018-09-17T01:38:59.976Z,3.10
2018-09-17T01:41:30.646Z,4.77
2018-09-17T01:44:01.272Z,2.93
2018-09-17T01:46:31.981Z,3.80
2018-09-17T01:49:02.708Z,4.10
2018-09-17T01:51:33.398Z,4.37
2018-09-17T01:54:04.065Z,3.63
2018-09-17T01:56:34.733Z,3.67
2018-09-17T01:59:05.464Z,4.47
2018-09-17T02:01:36.123Z,3.50
2018-09-17T02:04:06.880Z,3.57
2018-09-17T02:06:37.548Z,3.50
2018-09-17T02:09:09.171Z,4.67
2018-09-17T02:11:40.052Z,4.13
2018-09-17T02:14:10.794Z,4.70
2018-09-17T02:16:41.478Z,5.60
2018-09-17T02:19:12.155Z,3.53
2018-09-17T02:21:42.832Z,3.00
2018-09-17T02:24:13.520Z,3.23
2018-09-17T02:26:44.143Z,6.03
2018-09-17T02:29:14.876Z,3.43
2018-09-17T02:31:45.567Z,3.13
2018-09-17T02:34:16.297Z,3.63
2018-09-17T02:36:46.984Z,3.50
2018-09-17T02:39:17.755Z,3.33
2018-09-17T02:41:48.441Z,3.20
2018-09-17T02:44:19.151Z,3.10
2018-09-17T02:46:49.850Z,4.07
2018-09-17T02:49:20.708Z,3.67
2018-09-17T02:51:51.364Z,3.23
2018-09-17T02:54:22.084Z,3.83
2018-09-17T02:56:52.884Z,3.90
2018-09-17T02:59:23.601Z,5.17
2018-09-17T03:01:54.343Z,3.33
2018-09-17T03:04:25.027Z,4.30
2018-09-17T03:06:55.729Z,3.50
2018-09-17T03:09:26.590Z,3.63
2018-09-17T03:11:57.304Z,3.20
2018-09-17T03:14:30.574Z,3.30
2018-09-17T03:17:12.296Z,4.20
2018-09-17T03:19:44.058Z,3.97
2018-09-17T03:22:15.427Z,4.87
2018-09-17T03:24:46.132Z,3.27
2018-09-17T03:27:16.814Z,3.20
2018-09-17T03:29:47.560Z,3.80
2018-09-17T03:32:18.363Z,3.40
2018-09-17T03:34:49.053Z,3.43
2018-09-17T03:37:20.055Z,3.00
2018-09-17T03:39:50.770Z,4.57
2018-09-17T03:42:21.467Z,3.70
2018-09-17T03:44:52.176Z,3.53
2018-09-17T03:47:22.952Z,3.47
2018-09-17T03:49:53.624Z,3.83
2018-09-17T03:52:24.916Z,3.67
2018-09-17T03:54:55.635Z,4.93
2018-09-17T03:57:26.302Z,3.07
2018-09-17T03:59:57.051Z,5.10
2018-09-17T04:02:27.916Z,4.27
2018-09-17T04:04:58.636Z,3.13
2018-09-17T04:07:29.442Z,3.47
2018-09-17T04:10:00.146Z,4.27
2018-09-17T04:12:31.007Z,4.73
2018-09-17T04:15:01.886Z,4.20
2018-09-17T04:17:32.569Z,3.53
2018-09-17T04:20:03.337Z,3.73
2018-09-17T04:22:34.026Z,3.40
2018-09-17T04:25:04.767Z,5.20
2018-09-17T04:27:35.392Z,4.03
2018-09-17T04:30:06.256Z,4.90
2018-09-17T04:32:37.010Z,6.50
2018-09-17T04:35:08.340Z,3.80
2018-09-17T04:37:39.885Z,3.77
2018-09-17T04:40:10.648Z,6.83
2018-09-17T04:42:41.355Z,4.30
2018-09-17T04:45:12.117Z,6.53
2018-09-17T04:47:42.841Z,5.73
2018-09-17T04:50:13.534Z,5.00
2018-09-17T04:52:44.185Z,5.47
2018-09-17T04:55:14.872Z,5.27
2018-09-17T04:57:45.505Z,3.80
2018-09-17T05:00:16.207Z,4.50
2018-09-17T05:02:46.940Z,5.20
2018-09-17T05:05:17.687Z,4.40
2018-09-17T05:07:48.366Z,4.73
2018-09-17T05:10:19.032Z,4.13
2018-09-17T05:12:49.854Z,5.07
2018-09-17T05:15:20.644Z,4.63
2018-09-17T05:17:51.328Z,4.37
2018-09-17T05:20:21.996Z,7.23
2018-09-17T05:22:52.663Z,7.13
2018-09-17T05:25:23.345Z,6.07
2018-09-17T05:27:54.055Z,4.37
2018-09-17T05:30:24.771Z,6.47
2018-09-17T05:32:55.446Z,4.33
2018-09-17T05:35:26.227Z,5.10
2018-09-17T05:37:56.983Z,5.43
2018-09-17T05:40:27.679Z,5.60
2018-09-17T05:42:58.439Z,6.07
2018-09-17T05:45:29.127Z,8.93
2018-09-17T05:47:59.746Z,6.93
2018-09-17T05:50:30.592Z,7.97
2018-09-17T05:53:01.295Z,6.03
2018-09-17T05:55:32.132Z,6.23
2018-09-17T05:58:02.880Z,6.53
2018-09-17T06:00:33.803Z,8.40
2018-09-17T06:03:04.598Z,6.97
2018-09-17T06:05:35.509Z,14.77
2018-09-17T06:08:06.211Z,12.20
2018-09-17T06:10:36.939Z,5.57
2018-09-17T06:13:07.644Z,8.33
2018-09-17T06:15:38.421Z,4.93
2018-09-17T06:18:09.145Z,5.00
2018-09-17T06:20:39.893Z,6.43
2018-09-17T06:23:10.639Z,4.80
2018-09-17T06:25:41.414Z,5.53
2018-09-17T06:28:12.297Z,7.80
2018-09-17T06:30:43.024Z,6.33
2018-09-17T06:33:13.818Z,4.97
2018-09-17T06:35:44.535Z,5.97
2018-09-17T06:38:15.292Z,6.77
2018-09-17T06:40:46.072Z,6.57
2018-09-17T06:43:16.806Z,9.13
2018-09-17T06:45:52.751Z,8.37
2018-09-17T06:48:23.455Z,7.23
2018-09-17T06:50:54.152Z,8.47
2018-09-17T06:53:24.907Z,6.07
2018-09-17T06:55:55.663Z,6.17
2018-09-17T06:58:26.380Z,6.63
2018-09-17T07:00:57.142Z,10.50
2018-09-17T07:03:28.007Z,11.57
2018-09-17T07:05:58.756Z,5.87
2018-09-17T07:08:29.496Z,6.70
2018-09-17T07:11:00.217Z,5.10
2018-09-17T07:13:30.931Z,8.27
2018-09-17T07:16:01.643Z,6.87
2018-09-17T07:18:32.570Z,7.93
2018-09-17T07:21:03.316Z,8.30
2018-09-17T07:23:34.432Z,8.13
2018-09-17T07:26:06.103Z,7.43
2018-09-17T07:28:36.912Z,8.70
2018-09-17T07:31:12.933Z,7.43
2018-09-17T07:33:43.708Z,6.23
2018-09-17T07:36:14.475Z,9.10
2018-09-17T07:38:45.250Z,8.70
2018-09-17T07:41:16.313Z,7.07
2018-09-17T07:43:47.013Z,5.43
2018-09-17T07:46:17.790Z,7.37
2018-09-17T07:48:48.485Z,8.93
2018-09-17T07:51:19.351Z,6.93
2018-09-17T07:53:50.059Z,5.80
2018-09-17T07:56:20.804Z,9.17
2018-09-17T07:58:51.526Z,7.80
2018-09-17T08:01:22.196Z,6.73
2018-09-17T08:03:52.844Z,5.07
2018-09-17T08:06:23.556Z,6.00
2018-09-17T08:08:54.252Z,6.67
2018-09-17T08:11:25.005Z,4.67
2018-09-17T08:13:55.677Z,4.87
2018-09-17T08:16:26.383Z,7.60
2018-09-17T08:18:57.045Z,4.40
2018-09-17T08:21:27.696Z,5.73
2018-09-17T08:23:58.339Z,4.63
2018-09-17T08:26:29.016Z,5.20
2018-09-17T08:28:59.678Z,3.37
2018-09-17T08:31:30.331Z,3.40
2018-09-17T08:34:01.124Z,4.57
2018-09-17T08:36:31.777Z,5.47
2018-09-17T08:39:02.695Z,5.43
2018-09-17T08:41:33.385Z,3.37
2018-09-17T08:44:04.159Z,4.13
2018-09-17T08:46:34.903Z,3.93
2018-09-17T08:49:05.799Z,2.60
2018-09-17T08:51:36.492Z,5.37
2018-09-17T08:54:07.355Z,7.00
2018-09-17T08:56:43.193Z,5.70
2018-09-17T08:59:18.925Z,5.00
2018-09-17T09:01:54.808Z,4.93
2018-09-17T09:04:31.544Z,5.60
2018-09-17T09:07:07.397Z,3.90
2018-09-17T09:09:38.072Z,5.00
2018-09-17T09:12:13.967Z,4.73
2018-09-17T09:14:44.820Z,4.30
2018-09-17T09:17:15.530Z,5.87
2018-09-17T09:19:46.289Z,4.10
2018-09-17T09:22:17.028Z,6.53
2018-09-17T09:24:47.785Z,3.70
2018-09-17T09:27:18.524Z,5.97
2018-09-17T09:29:49.239Z,4.27
2018-09-17T09:32:20.027Z,5.83
2018-09-17T09:34:50.855Z,5.90
2018-09-17T09:37:21.525Z,3.87
2018-09-17T09:39:52.249Z,4.27
2018-09-17T09:42:26.173Z,3.70
2018-09-17T09:44:56.869Z,4.40
2018-09-17T09:47:27.605Z,2.67
2018-09-17T09:49:58.296Z,4.20
2018-09-17T09:52:28.990Z,3.50
2018-09-17T09:54:59.693Z,3.73
2018-09-17T09:57:30.373Z,4.67
2018-09-17T10:00:01.042Z,4.60
2018-09-17T10:02:35.854Z,5.30
2018-09-17T10:05:07.093Z,4.30
2018-09-17T10:07:37.840Z,3.53
2018-09-17T10:10:13.852Z,4.60
2018-09-17T10:12:49.668Z,4.23
2018-09-17T10:16:25.263Z,4.97
2018-09-17T10:19:01.084Z,3.00
2018-09-17T10:21:31.805Z,3.67
2018-09-17T10:24:02.503Z,5.53
2018-09-17T10:26:33.219Z,3.57
2018-09-17T10:29:03.977Z,2.70
2018-09-17T10:31:34.736Z,5.53
2018-09-17T10:34:05.435Z,2.63
2018-09-17T10:36:36.621Z,4.60
2018-09-17T10:39:11.295Z,4.00
2018-09-17T10:41:41.975Z,2.87
2018-09-17T10:44:12.714Z,2.10
2018-09-17T10:46:43.426Z,4.53
2018-09-17T10:49:14.115Z,2.50
2018-09-17T10:51:44.817Z,3.23
2018-09-17T10:54:15.565Z,3.13
2018-09-17T10:56:46.309Z,2.67
2018-09-17T10:59:16.993Z,2.60
2018-09-17T11:01:47.745Z,2.27
2018-09-17T11:04:18.416Z,2.63
2018-09-17T11:06:49.211Z,1.90
2018-09-17T11:09:20.060Z,4.10
2018-09-17T11:11:50.872Z,2.23
2018-09-17T11:14:21.537Z,2.37
2018-09-17T11:16:52.202Z,2.47
2018-09-17T11:19:22.865Z,3.87
2018-09-17T11:21:53.516Z,2.50
2018-09-17T11:24:24.153Z,2.80
2018-09-17T11:26:54.843Z,2.77
2018-09-17T11:29:25.574Z,4.50
2018-09-17T11:31:56.267Z,3.30
2018-09-17T11:34:26.938Z,3.23
2018-09-17T11:36:57.639Z,1.73
2018-09-17T11:39:28.308Z,2.67
2018-09-17T11:41:59.032Z,1.50
2018-09-17T11:44:29.744Z,2.70
2018-09-17T11:47:00.401Z,1.60
2018-09-17T11:49:31.143Z,3.10
2018-09-17T11:52:01.793Z,3.20
2018-09-17T11:54:32.539Z,1.70
2018-09-17T11:57:03.196Z,2.97
2018-09-17T11:59:33.877Z,1.97
2018-09-17T12:02:04.656Z,2.77
2018-09-17T12:04:40.647Z,1.60
2018-09-17T12:07:16.861Z,2.97
2018-09-17T12:09:47.548Z,2.00
2018-09-17T12:12:18.305Z,2.53
2018-09-17T12:14:48.991Z,2.17
2018-09-17T12:17:19.666Z,1.80
2018-09-17T12:19:50.302Z,2.47
2018-09-17T12:22:20.926Z,1.93
2018-09-17T12:24:51.584Z,2.53
2018-09-17T12:27:22.283Z,1.60
2018-09-17T12:29:53.007Z,1.40
2018-09-17T12:32:23.670Z,2.33
2018-09-17T12:34:54.402Z,1.30
2018-09-17T12:37:25.046Z,2.73
2018-09-17T12:39:55.794Z,6.37
2018-09-17T12:42:26.494Z,5.40
2018-09-17T12:44:57.206Z,4.23
2018-09-17T12:47:27.859Z,1.80
2018-09-17T12:49:58.571Z,2.67
2018-09-17T12:52:29.320Z,1.63
2018-09-17T12:55:30.615Z,1.30
2018-09-17T12:58:01.292Z,1.30
2018-09-17T13:00:31.992Z,1.60
2018-09-17T13:03:02.687Z,1.80
2018-09-17T13:05:33.371Z,2.20
2018-09-17T13:08:04.039Z,2.37
2018-09-17T13:10:34.823Z,1.70
2018-09-17T13:13:05.528Z,1.30
2018-09-17T13:15:40.236Z,1.27
2018-09-17T13:18:10.936Z,1.23
2018-09-17T13:20:41.551Z,1.40
2018-09-17T13:23:12.316Z,1.73
2018-09-17T13:25:43.049Z,2.17
2018-09-17T13:28:13.903Z,1.67
2018-09-17T13:30:44.602Z,1.30
2018-09-17T13:33:15.341Z,2.70
2018-09-17T13:35:46.032Z,3.40
2018-09-17T13:38:16.735Z,1.50
2018-09-17T13:40:47.479Z,2.57
2018-09-17T13:43:18.208Z,1.80
2018-09-17T13:45:49.024Z,1.50
2018-09-17T13:48:20.024Z,2.77
2018-09-17T13:50:50.735Z,2.23
2018-09-17T13:53:21.490Z,1.50
2018-09-17T13:55:52.123Z,1.73
2018-09-17T13:58:22.850Z,1.20
2018-09-17T14:00:53.599Z,1.40
2018-09-17T14:03:24.343Z,3.57
2018-09-17T14:05:55.053Z,3.57
2018-09-17T14:08:25.792Z,2.60
2018-09-17T14:10:56.486Z,3.47
2018-09-17T14:13:27.211Z,1.67
2018-09-17T14:16:02.098Z,2.00
2018-09-17T14:18:33.175Z,2.57
2018-09-17T14:21:03.848Z,1.43
2018-09-17T14:23:34.862Z,1.50
2018-09-17T14:26:05.630Z,1.30
2018-09-17T14:28:36.268Z,2.30
2018-09-17T14:31:07.180Z,2.03
2018-09-17T14:33:40.463Z,1.50
2018-09-17T14:36:11.157Z,3.27
2018-09-17T14:38:41.811Z,2.17
2018-09-17T14:41:12.461Z,2.70
2018-09-17T14:43:43.355Z,2.10
2018-09-17T14:46:13.989Z,1.33
2018-09-17T14:48:44.771Z,2.57
2018-09-17T14:51:15.483Z,1.83
2018-09-17T14:53:46.119Z,1.50
2018-09-17T14:56:16.885Z,2.03
2018-09-17T14:58:47.559Z,1.97
2018-09-17T15:01:18.283Z,2.83
2018-09-17T15:03:50.323Z,2.07
2018-09-17T15:06:21.015Z,2.10
2018-09-17T15:08:51.747Z,3.17
2018-09-17T15:11:22.408Z,1.37
2018-09-17T15:13:53.189Z,1.70
2018-09-17T15:16:23.942Z,1.97
2018-09-17T15:18:54.907Z,2.30
2018-09-17T15:21:25.585Z,1.33
2018-09-17T15:23:56.359Z,4.07
2018-09-17T15:26:27.246Z,1.47
2018-09-17T15:28:58.082Z,2.20
2018-09-17T15:31:28.832Z,2.80
2018-09-17T15:33:59.610Z,1.50
2018-09-17T15:36:30.323Z,2.10
2018-09-17T15:39:00.997Z,2.90
2018-09-17T15:41:32.824Z,1.13
2018-09-17T15:44:03.514Z,2.27
2018-09-17T15:46:34.198Z,1.93
2018-09-17T15:49:04.974Z,2.00
2018-09-17T15:51:35.759Z,1.20
2018-09-17T15:54:06.479Z,1.83
2018-09-17T15:56:37.223Z,2.13
2018-09-17T15:59:07.887Z,1.37
2018-09-17T16:01:38.655Z,2.27
2018-09-17T16:04:09.312Z,4.30
2018-09-17T16:06:39.971Z,1.33
2018-09-17T16:09:10.627Z,1.47
2018-09-17T16:11:41.307Z,1.53
2018-09-17T16:14:12.154Z,3.03
2018-09-17T16:16:42.752Z,1.87
2018-09-17T16:19:13.567Z,1.40
2018-09-17T16:22:00.090Z,2.00
2018-09-17T16:24:39.804Z,1.30
2018-09-17T16:27:10.639Z,7.47
2018-09-17T16:29:41.382Z,3.00
2018-09-17T16:32:12.119Z,1.43
2018-09-17T16:34:42.869Z,1.70
2018-09-17T16:37:13.977Z,1.77
2018-09-17T16:39:44.701Z,1.40
2018-09-17T16:42:15.521Z,2.27
2018-09-17T16:44:46.250Z,3.40
2018-09-17T16:47:17.043Z,1.73
2018-09-17T16:49:47.766Z,1.50
2018-09-17T16:52:18.420Z,1.63
2018-09-17T16:54:49.150Z,1.70
2018-09-17T16:57:19.923Z,1.53
2018-09-17T16:59:50.721Z,1.67
2018-09-17T17:02:21.583Z,1.53
2018-09-17T17:04:52.435Z,1.53
2018-09-17T17:07:23.123Z,1.50
2018-09-17T17:09:53.837Z,3.00
2018-09-17T17:12:24.540Z,2.43
2018-09-17T17:14:55.258Z,2.90
2018-09-17T17:17:25.987Z,4.07
2018-09-17T17:19:56.679Z,2.43
2018-09-17T17:22:27.372Z,4.13
2018-09-17T17:24:58.074Z,2.80
2018-09-17T17:27:28.781Z,3.70
2018-09-17T17:29:59.532Z,9.00
2018-09-17T17:32:30.232Z,5.57
2018-09-17T17:35:00.934Z,2.47
2018-09-17T17:37:31.647Z,2.60
2018-09-17T17:40:02.494Z,2.57
2018-09-17T17:42:33.043Z,2.03
2018-09-17T17:45:03.760Z,1.53
2018-09-17T17:47:34.436Z,2.17
2018-09-17T17:50:05.837Z,2.43
2018-09-17T17:52:36.543Z,10.63
2018-09-17T17:55:07.473Z,13.20
2018-09-17T17:57:38.204Z,4.27
2018-09-17T18:00:10.820Z,2.43
2018-09-17T18:02:41.553Z,3.37
2018-09-17T18:05:12.230Z,1.80
2018-09-17T18:07:43.014Z,1.90
2018-09-17T18:10:14.101Z,2.17
2018-09-17T18:12:45.058Z,1.87
2018-09-17T18:15:15.892Z,2.03
2018-09-17T18:17:46.559Z,2.30
2018-09-17T18:20:17.388Z,2.83
2018-09-17T18:22:48.193Z,1.80
2018-09-17T18:25:19.856Z,1.77
2018-09-17T18:27:50.511Z,2.20
2018-09-17T18:30:21.242Z,1.80
2018-09-17T18:32:51.933Z,3.00
2018-09-17T18:35:22.934Z,4.13
2018-09-17T18:37:53.679Z,9.07
2018-09-17T18:40:24.351Z,3.87
2018-09-17T18:42:55.118Z,3.00
2018-09-17T18:45:25.899Z,2.20
2018-09-17T18:47:56.847Z,2.63
2018-09-17T18:50:27.652Z,3.77
2018-09-17T18:52:58.352Z,2.43
2018-09-17T18:55:29.140Z,5.83
2018-09-17T18:57:59.916Z,4.63
2018-09-17T19:00:30.657Z,2.57
2018-09-17T19:03:01.409Z,2.50
2018-09-17T19:05:32.083Z,3.43
2018-09-17T19:08:02.800Z,6.43
2018-09-17T19:10:36.134Z,3.07
2018-09-17T19:13:06.985Z,3.27
2018-09-17T19:15:42.897Z,5.63
2018-09-17T19:18:18.728Z,3.77
2018-09-17T19:20:50.516Z,4.37
2018-09-17T19:24:29.688Z,4.30
2018-09-17T19:27:00.456Z,4.60
2018-09-17T19:29:31.136Z,3.07
2018-09-17T19:32:01.947Z,5.97
2018-09-17T19:34:32.628Z,4.47
2018-09-17T19:37:08.568Z,5.50
2018-09-17T19:39:44.315Z,4.30
2018-09-17T19:42:15.172Z,4.57
2018-09-17T19:44:51.063Z,5.20
2018-09-17T19:47:21.708Z,3.20
2018-09-17T19:49:52.476Z,3.93
2018-09-17T19:52:24.570Z,3.37
2018-09-17T19:54:55.538Z,4.13
2018-09-17T19:57:31.497Z,4.43
2018-09-17T20:00:02.216Z,4.67
2018-09-17T20:02:32.978Z,3.63
2018-09-17T20:05:08.978Z,4.17
2018-09-17T20:07:39.654Z,3.07
2018-09-17T20:10:10.449Z,3.53
2018-09-17T20:12:41.175Z,4.93
2018-09-17T20:15:11.931Z,4.80
2018-09-17T20:17:42.612Z,6.23
2018-09-17T20:20:13.368Z,7.23
2018-09-17T20:22:44.031Z,3.13
2018-09-17T20:25:15.411Z,4.23
2018-09-17T20:27:46.097Z,3.47
2018-09-17T20:30:16.812Z,3.20
2018-09-17T20:32:47.536Z,5.47
2018-09-17T20:35:18.696Z,4.77
2018-09-17T20:37:49.410Z,5.17
2018-09-17T20:40:20.172Z,4.83
2018-09-17T20:42:51.294Z,4.07
2018-09-17T20:45:22.000Z,4.07
2018-09-17T20:47:52.735Z,3.83
2018-09-17T20:50:23.380Z,4.20
2018-09-17T20:52:54.066Z,4.40
2018-09-17T20:55:24.803Z,5.13
2018-09-17T20:57:55.446Z,5.90
2018-09-17T21:00:26.131Z,3.77
2018-09-17T21:02:56.785Z,3.70
2018-09-17T21:05:27.444Z,3.07
2018-09-17T21:07:58.097Z,4.87
2018-09-17T21:10:28.799Z,5.77
2018-09-17T21:12:59.449Z,3.03
2018-09-17T21:15:30.091Z,4.17
2018-09-17T21:18:00.871Z,5.07
2018-09-17T21:20:31.525Z,3.77
2018-09-17T21:23:02.236Z,6.53
2018-09-17T21:25:33.009Z,4.97
2018-09-17T21:28:03.770Z,4.37
2018-09-17T21:30:34.796Z,3.60
2018-09-17T21:33:05.453Z,3.50
2018-09-17T21:35:36.191Z,4.07
2018-09-17T21:38:06.853Z,4.77
2018-09-17T21:40:37.532Z,3.47
2018-09-17T21:43:08.223Z,4.57
2018-09-17T21:45:39.399Z,3.50
2018-09-17T21:48:10.054Z,2.83
2018-09-17T21:50:40.710Z,4.33
2018-09-17T21:53:11.417Z,3.27
2018-09-17T21:55:42.097Z,5.57
2018-09-17T21:58:12.766Z,6.13
2018-09-17T22:00:48.728Z,3.30
2018-09-17T22:03:19.408Z,3.03
2018-09-17T22:05:50.199Z,2.97
2018-09-17T22:08:20.894Z,5.03
2018-09-17T22:10:51.581Z,4.57
2018-09-17T22:13:22.431Z,4.07
2018-09-17T22:15:53.110Z,3.73
2018-09-17T22:18:23.752Z,2.60
2018-09-17T22:20:54.428Z,2.90
2018-09-17T22:23:25.064Z,3.37
2018-09-17T22:25:55.761Z,3.03
2018-09-17T22:28:26.964Z,2.90
2018-09-17T22:30:57.623Z,3.83
2018-09-17T22:33:28.305Z,3.30
2018-09-17T22:35:59.000Z,3.87
2018-09-17T22:38:29.661Z,2.90
2018-09-17T22:41:00.362Z,2.77
2018-09-17T22:43:31.060Z,3.47
2018-09-17T22:46:01.725Z,3.17
2018-09-17T22:48:32.374Z,3.90
2018-09-17T22:51:02.999Z,3.27
2018-09-17T22:53:33.639Z,2.90
2018-09-17T22:56:04.339Z,2.73
2018-09-17T22:58:35.091Z,3.20
2018-09-17T23:01:05.860Z,3.53
2018-09-17T23:03:36.555Z,4.77
2018-09-17T23:06:07.286Z,2.97
2018-09-17T23:08:37.931Z,2.20
2018-09-17T23:11:08.564Z,3.43
2018-09-17T23:13:39.177Z,3.10
2018-09-17T23:16:09.836Z,3.00
2018-09-17T23:18:40.479Z,3.57
2018-09-17T23:21:11.135Z,2.90
2018-09-17T23:23:41.804Z,4.43
2018-09-17T23:26:12.459Z,3.23
2018-09-17T23:28:43.101Z,4.53
2018-09-17T23:31:13.751Z,4.97
2018-09-17T23:33:44.390Z,2.90
2018-09-17T23:36:15.065Z,3.23
2018-09-17T23:38:45.687Z,4.40
2018-09-17T23:41:16.324Z,3.37
2018-09-17T23:43:47.111Z,2.60
2018-09-17T23:46:17.760Z,4.17
2018-09-17T23:48:48.400Z,4.10
2018-09-17T23:51:19.132Z,2.80
2018-09-17T23:53:49.788Z,3.27
2018-09-17T23:56:20.405Z,4.50
2018-09-17T23:58:51.106Z,2.80
